createdAt,value
2023-02-05T00:00:09.909Z,-17.51
2023-02-05T00:03:13.003Z,-17.40
2023-02-05T00:06:16.258Z,-17.41
2023-02-05T00:09:19.364Z,-17.49
2023-02-05T00:12:22.386Z,-17.45
2023-02-05T00:15:25.553Z,-17.31
2023-02-05T00:18:28.779Z,-17.37
2023-02-05T00:21:31.959Z,-17.53
2023-02-05T00:24:35.186Z,-17.66
2023-02-05T00:27:38.364Z,-17.84
2023-02-05T00:30:42.605Z,-18.00
2023-02-05T00:33:45.987Z,-17.97
2023-02-05T00:36:49.074Z,-18.00
2023-02-05T00:39:52.531Z,-18.04
2023-02-05T00:42:55.718Z,-17.97
2023-02-05T00:45:58.993Z,-17.88
2023-02-05T00:49:02.178Z,-17.90
2023-02-05T00:52:05.821Z,-17.89
2023-02-05T00:55:09.134Z,-17.84
2023-02-05T00:58:12.878Z,-17.78
2023-02-05T01:01:16.581Z,-17.68
2023-02-05T01:04:19.770Z,-17.54
2023-02-05T01:07:23.498Z,-17.31
2023-02-05T01:10:26.772Z,-17.05
2023-02-05T01:13:30.041Z,-16.97
2023-02-05T01:16:33.271Z,-16.87
2023-02-05T01:19:37.161Z,-16.71
2023-02-05T01:22:43.268Z,-16.69
2023-02-05T01:25:48.729Z,-16.79
2023-02-05T01:28:53.342Z,-16.74
2023-02-05T01:31:57.148Z,-16.65
2023-02-05T01:35:04.979Z,-16.69
2023-02-05T01:38:09.639Z,-16.54
2023-02-05T01:41:14.318Z,-16.40
2023-02-05T01:44:23.401Z,-16.21
2023-02-05T01:47:27.526Z,-16.20
2023-02-05T01:50:42.001Z,-16.21
2023-02-05T01:53:50.112Z,-16.13
2023-02-05T01:57:08.951Z,-16.02
2023-02-05T02:00:13.835Z,-15.84
2023-02-05T02:03:22.109Z,-15.91
2023-02-05T02:06:28.258Z,-15.86
2023-02-05T02:09:32.550Z,-15.60
2023-02-05T02:12:37.983Z,-15.36
2023-02-05T02:15:42.305Z,-15.11
2023-02-05T02:18:47.572Z,-14.94
2023-02-05T02:22:13.551Z,-14.80
2023-02-05T02:25:29.436Z,-14.69
2023-02-05T02:28:42.400Z,-14.50
2023-02-05T02:31:56.281Z,-14.31
2023-02-05T02:35:43.867Z,-14.34
2023-02-05T02:38:56.363Z,-14.21
2023-02-05T02:42:14.847Z,-14.16
2023-02-05T02:45:23.350Z,-13.96
2023-02-05T02:48:31.173Z,-13.69
2023-02-05T02:51:39.550Z,-13.49
2023-02-05T02:54:47.218Z,-13.35
2023-02-05T02:58:03.036Z,-13.21
2023-02-05T03:01:10.284Z,-13.08
2023-02-05T03:04:22.696Z,-12.97
2023-02-05T03:07:36.686Z,-12.80
2023-02-05T03:10:49.477Z,-12.65
2023-02-05T03:13:54.144Z,-12.55
2023-02-05T03:17:01.114Z,-12.44
2023-02-05T03:20:18.059Z,-12.31
2023-02-05T03:23:22.575Z,-12.18
2023-02-05T03:26:34.778Z,-12.03
2023-02-05T03:29:58.774Z,-11.89
2023-02-05T03:33:37.157Z,-11.79
2023-02-05T03:36:54.547Z,-11.66
2023-02-05T03:40:43.894Z,-11.52
2023-02-05T03:44:26.237Z,-11.35
2023-02-05T03:48:09.142Z,-11.22
2023-02-05T03:51:21.323Z,-10.97
2023-02-05T03:54:31.087Z,-10.83
2023-02-05T03:57:45.522Z,-10.72
2023-02-05T04:00:50.920Z,-10.63
2023-02-05T04:03:55.569Z,-10.53
2023-02-05T04:07:01.021Z,-10.44
2023-02-05T04:10:05.657Z,-10.34
2023-02-05T04:13:09.887Z,-10.23
2023-02-05T04:16:16.048Z,-10.11
2023-02-05T04:19:21.141Z,-9.98
2023-02-05T04:22:27.132Z,-9.89
2023-02-05T04:25:38.104Z,-9.77
2023-02-05T04:28:45.751Z,-9.68
2023-02-05T04:31:50.409Z,-9.54
2023-02-05T04:34:56.619Z,-9.54
2023-02-05T04:38:04.591Z,-9.51
2023-02-05T04:41:08.890Z,-9.42
2023-02-05T04:44:13.734Z,-9.37
2023-02-05T04:47:17.859Z,-9.34
2023-02-05T04:50:22.497Z,-9.30
2023-02-05T04:53:26.596Z,-9.23
2023-02-05T04:56:30.548Z,-9.19
2023-02-05T04:59:33.999Z,-9.06
2023-02-05T05:02:38.023Z,-9.00
2023-02-05T05:05:41.857Z,-8.97
2023-02-05T05:08:46.325Z,-8.90
2023-02-05T05:11:56.936Z,-8.79
2023-02-05T05:15:00.256Z,-8.70
2023-02-05T05:18:05.206Z,-8.67
2023-02-05T05:21:10.598Z,-8.55
2023-02-05T05:24:14.161Z,-8.45
2023-02-05T05:27:19.827Z,-8.35
2023-02-05T05:33:44.668Z,-8.20
2023-02-05T05:36:49.258Z,-8.18
2023-02-05T05:40:10.482Z,-8.07
2023-02-05T05:43:34.899Z,-8.07
2023-02-05T05:46:38.258Z,-7.99
2023-02-05T05:49:42.608Z,-7.94
2023-02-05T05:52:46.842Z,-7.86
2023-02-05T05:55:50.235Z,-7.72
2023-02-05T05:58:54.487Z,-7.67
2023-02-05T06:02:04.987Z,-7.61
2023-02-05T06:05:09.260Z,-7.57
2023-02-05T06:08:15.017Z,-7.42
2023-02-05T06:11:19.641Z,-7.29
2023-02-05T06:14:22.529Z,-7.12
2023-02-05T06:17:36.842Z,-7.01
2023-02-05T06:20:42.727Z,-7.07
2023-02-05T06:23:50.336Z,-7.06
2023-02-05T06:26:57.647Z,-6.90
2023-02-05T06:30:16.728Z,-6.89
2023-02-05T06:33:27.152Z,-6.82
2023-02-05T06:36:38.164Z,-6.69
2023-02-05T06:39:43.539Z,-6.56
2023-02-05T06:42:56.208Z,-6.47
2023-02-05T06:46:03.806Z,-6.43
2023-02-05T06:49:12.937Z,-6.34
2023-02-05T06:52:18.196Z,-6.31
2023-02-05T06:55:22.064Z,-6.25
2023-02-05T06:58:27.176Z,-6.16
2023-02-05T07:01:32.057Z,-6.12
2023-02-05T07:04:38.678Z,-6.06
2023-02-05T07:07:49.749Z,-6.00
2023-02-05T07:10:54.534Z,-5.93
2023-02-05T07:13:59.098Z,-5.89
2023-02-05T07:17:05.842Z,-5.81
2023-02-05T07:20:10.012Z,-5.88
2023-02-05T07:23:14.003Z,-5.94
2023-02-05T07:26:18.841Z,-5.97
2023-02-05T07:29:23.321Z,-5.97
2023-02-05T07:32:31.818Z,-5.85
2023-02-05T07:35:38.890Z,-5.86
2023-02-05T07:38:41.998Z,-5.84
2023-02-05T07:41:45.606Z,-5.85
2023-02-05T07:44:57.707Z,-5.81
2023-02-05T07:48:00.954Z,-5.81
2023-02-05T07:51:04.598Z,-5.85
2023-02-05T07:54:09.459Z,-5.90
2023-02-05T07:57:12.709Z,-5.94
2023-02-05T08:00:16.032Z,-5.99
2023-02-05T08:03:19.180Z,-6.00
2023-02-05T08:06:22.436Z,-6.01
2023-02-05T08:09:25.610Z,-5.86
2023-02-05T08:12:28.745Z,-5.77
2023-02-05T08:15:32.005Z,-5.85
2023-02-05T08:18:35.578Z,-5.91
2023-02-05T08:21:38.689Z,-5.90
2023-02-05T08:24:41.782Z,-5.91
2023-02-05T08:27:46.636Z,-6.00
2023-02-05T08:30:50.147Z,-6.11
2023-02-05T08:33:55.576Z,-6.22
2023-02-05T08:36:58.895Z,-6.30
2023-02-05T08:40:02.149Z,-6.39
2023-02-05T08:43:10.734Z,-6.42
2023-02-05T08:46:18.243Z,-6.46
2023-02-05T08:49:22.145Z,-6.49
2023-02-05T08:52:28.164Z,-6.57
2023-02-05T08:55:32.214Z,-6.68
2023-02-05T08:58:37.927Z,-6.84
2023-02-05T09:01:41.891Z,-6.97
2023-02-05T09:04:45.175Z,-7.10
2023-02-05T09:07:48.524Z,-7.25
2023-02-05T09:10:53.419Z,-7.40
2023-02-05T09:13:59.022Z,-7.55
2023-02-05T09:17:07.323Z,-7.67
2023-02-05T09:20:13.951Z,-7.80
2023-02-05T09:23:22.650Z,-7.93
2023-02-05T09:26:29.735Z,-8.03
2023-02-05T09:29:33.739Z,-8.11
2023-02-05T09:32:37.863Z,-8.21
2023-02-05T09:35:43.442Z,-8.30
2023-02-05T09:38:49.791Z,-8.37
2023-02-05T09:42:04.976Z,-8.44
2023-02-05T09:45:30.488Z,-8.52
2023-02-05T09:48:57.298Z,-8.63
2023-02-05T09:52:06.978Z,-8.77
2023-02-05T09:55:45.735Z,-8.88
2023-02-05T09:58:56.382Z,-8.99
2023-02-05T10:02:00.930Z,-9.08
2023-02-05T10:05:13.837Z,-9.18
2023-02-05T10:08:29.118Z,-9.39
2023-02-05T10:11:41.539Z,-9.56
2023-02-05T10:14:54.014Z,-9.69
2023-02-05T10:18:19.532Z,-9.86
2023-02-05T10:21:47.672Z,-10.09
2023-02-05T10:25:13.806Z,-10.22
2023-02-05T10:28:29.329Z,-10.31
2023-02-05T10:31:54.428Z,-10.39
2023-02-05T10:35:00.212Z,-10.36
2023-02-05T10:38:12.440Z,-10.45
2023-02-05T10:41:38.834Z,-10.59
2023-02-05T10:44:53.816Z,-10.71
2023-02-05T10:48:38.127Z,-10.73
2023-02-05T10:51:45.458Z,-10.82
2023-02-05T10:54:50.862Z,-10.86
2023-02-05T10:57:55.388Z,-10.92
2023-02-05T11:00:59.394Z,-10.94
2023-02-05T11:04:16.872Z,-10.97
2023-02-05T11:07:40.351Z,-11.00
2023-02-05T11:10:54.804Z,-11.06
2023-02-05T11:14:07.826Z,-11.12
2023-02-05T11:17:27.910Z,-11.21
2023-02-05T11:20:42.764Z,-11.19
2023-02-05T11:23:55.488Z,-11.16
2023-02-05T11:27:17.596Z,-11.14
2023-02-05T11:30:51.348Z,-11.17
2023-02-05T11:33:53.235Z,-11.29
2023-02-05T11:36:58.444Z,-11.30
2023-02-05T11:40:02.906Z,-11.42
2023-02-05T11:43:24.111Z,-11.54
2023-02-05T11:46:31.415Z,-11.60
2023-02-05T11:49:42.026Z,-11.65
2023-02-05T11:52:45.836Z,-11.81
2023-02-05T11:56:01.378Z,-12.01
2023-02-05T11:59:27.570Z,-12.17
2023-02-05T12:02:35.114Z,-12.20
2023-02-05T12:05:44.165Z,-12.16
2023-02-05T12:08:53.137Z,-12.08
2023-02-05T12:12:19.261Z,-11.97
2023-02-05T12:15:29.023Z,-11.99
2023-02-05T12:19:01.704Z,-12.01
2023-02-05T12:22:23.851Z,-12.07
2023-02-05T12:26:13.882Z,-12.13
2023-02-05T12:29:40.687Z,-12.22
2023-02-05T12:33:30.107Z,-12.28
2023-02-05T12:36:55.807Z,-12.41
2023-02-05T12:40:33.583Z,-12.34
2023-02-05T12:43:43.466Z,-12.23
2023-02-05T12:47:12.168Z,-12.16
2023-02-05T12:50:33.857Z,-12.11
2023-02-05T12:53:58.921Z,-12.04
2023-02-05T12:57:16.466Z,-11.98
2023-02-05T13:00:55.134Z,-11.90
2023-02-05T13:04:02.068Z,-11.85
2023-02-05T13:07:13.171Z,-11.78
2023-02-05T13:10:29.828Z,-11.77
2023-02-05T13:13:47.141Z,-11.78
2023-02-05T13:17:00.320Z,-11.71
2023-02-05T13:20:09.771Z,-11.74
2023-02-05T13:23:32.497Z,-11.83
2023-02-05T13:27:00.798Z,-11.91
2023-02-05T13:30:06.415Z,-12.02
2023-02-05T13:33:13.024Z,-12.16
2023-02-05T13:36:44.165Z,-12.35
2023-02-05T13:40:06.150Z,-12.37
2023-02-05T13:43:27.316Z,-12.50
2023-02-05T13:46:52.928Z,-12.57
2023-02-05T13:50:24.586Z,-12.57
2023-02-05T13:53:43.076Z,-12.59
2023-02-05T13:56:59.048Z,-12.61
2023-02-05T14:00:06.594Z,-12.65
2023-02-05T14:03:31.270Z,-12.71
2023-02-05T14:06:41.063Z,-12.65
2023-02-05T14:10:03.293Z,-12.61
2023-02-05T14:13:22.666Z,-12.55
2023-02-05T14:16:26.458Z,-12.59
2023-02-05T14:19:32.737Z,-12.66
2023-02-05T14:22:43.159Z,-12.71
2023-02-05T14:26:03.507Z,-12.76
2023-02-05T14:29:42.154Z,-12.86
2023-02-05T14:32:45.330Z,-12.92
2023-02-05T14:35:49.848Z,-12.94
2023-02-05T14:39:05.811Z,-13.00
2023-02-05T14:42:20.169Z,-13.04
2023-02-05T14:45:27.885Z,-13.11
2023-02-05T14:48:43.388Z,-13.23
2023-02-05T14:52:02.693Z,-13.39
2023-02-05T14:55:18.355Z,-13.52
2023-02-05T14:58:45.600Z,-13.51
2023-02-05T15:01:53.365Z,-13.61
2023-02-05T15:05:00.017Z,-13.68
2023-02-05T15:08:38.572Z,-13.58
2023-02-05T15:12:15.329Z,-13.54
2023-02-05T15:15:36.148Z,-13.50
2023-02-05T15:19:10.638Z,-13.45
2023-02-05T15:22:25.409Z,-13.53
2023-02-05T15:25:37.776Z,-13.58
2023-02-05T15:28:47.909Z,-13.61
2023-02-05T15:32:02.991Z,-13.58
2023-02-05T15:35:17.037Z,-13.63
2023-02-05T15:38:50.435Z,-13.68
2023-02-05T15:41:56.695Z,-13.72
2023-02-05T15:44:59.971Z,-13.77
2023-02-05T15:48:12.891Z,-13.70
2023-02-05T15:51:28.943Z,-13.60
2023-02-05T15:54:34.938Z,-13.56
2023-02-05T15:57:38.289Z,-13.58
2023-02-05T16:00:42.142Z,-13.63
2023-02-05T16:03:45.428Z,-13.58
2023-02-05T16:06:49.416Z,-13.48
2023-02-05T16:09:56.762Z,-13.38
2023-02-05T16:13:01.648Z,-13.28
2023-02-05T16:16:10.320Z,-13.16
2023-02-05T16:19:22.618Z,-13.00
2023-02-05T16:22:41.378Z,-12.83
2023-02-05T16:25:57.638Z,-12.71
2023-02-05T16:29:11.685Z,-12.69
2023-02-05T16:32:38.936Z,-12.66
2023-02-05T16:35:49.157Z,-12.64
2023-02-05T16:39:22.202Z,-12.59
2023-02-05T16:42:28.088Z,-12.65
2023-02-05T16:45:32.162Z,-12.70
2023-02-05T16:48:39.399Z,-12.67
2023-02-05T16:51:48.568Z,-12.68
2023-02-05T16:54:51.809Z,-12.70
2023-02-05T16:58:05.695Z,-12.72
2023-02-05T17:01:08.930Z,-12.71
2023-02-05T17:04:51.889Z,-12.72
2023-02-05T17:08:09.466Z,-12.70
2023-02-05T17:11:34.228Z,-12.66
2023-02-05T17:14:37.303Z,-12.76
2023-02-05T17:17:53.768Z,-12.78
2023-02-05T17:21:30.669Z,-12.72
2023-02-05T17:24:33.921Z,-12.66
2023-02-05T17:27:38.884Z,-12.69
2023-02-05T17:30:44.241Z,-12.73
2023-02-05T17:33:51.380Z,-12.73
2023-02-05T17:36:54.481Z,-12.79
2023-02-05T17:39:58.452Z,-12.82
2023-02-05T17:43:01.700Z,-12.85
2023-02-05T17:46:04.974Z,-12.94
2023-02-05T17:49:08.319Z,-12.98
2023-02-05T17:52:12.083Z,-12.97
2023-02-05T17:55:18.515Z,-12.95
2023-02-05T17:58:21.853Z,-12.99
2023-02-05T18:01:25.277Z,-13.06
2023-02-05T18:04:28.694Z,-13.13
2023-02-05T18:07:36.106Z,-13.10
2023-02-05T18:10:39.330Z,-13.06
2023-02-05T18:13:42.566Z,-13.04
2023-02-05T18:16:45.776Z,-13.05
2023-02-05T18:19:49.089Z,-13.11
2023-02-05T18:22:52.310Z,-13.18
2023-02-05T18:25:55.872Z,-13.26
2023-02-05T18:28:59.065Z,-13.34
2023-02-05T18:32:02.382Z,-13.37
2023-02-05T18:35:05.719Z,-13.45
2023-02-05T18:38:08.818Z,-13.54
2023-02-05T18:41:18.041Z,-13.74
2023-02-05T18:44:21.416Z,-13.76
2023-02-05T18:47:24.609Z,-13.76
2023-02-05T18:50:29.790Z,-13.71
2023-02-05T18:53:34.967Z,-13.70
2023-02-05T18:56:39.034Z,-13.73
2023-02-05T18:59:42.158Z,-13.78
2023-02-05T19:02:45.228Z,-13.82
2023-02-05T19:05:48.331Z,-13.87
2023-02-05T19:08:51.524Z,-13.83
2023-02-05T19:11:55.955Z,-13.87
2023-02-05T19:14:59.024Z,-13.98
2023-02-05T19:18:02.252Z,-14.04
2023-02-05T19:21:07.463Z,-14.08
2023-02-05T19:24:14.141Z,-14.11
2023-02-05T19:27:18.681Z,-14.14
2023-02-05T19:30:21.945Z,-14.08
2023-02-05T19:33:25.296Z,-14.06
2023-02-05T19:36:29.613Z,-14.06
2023-02-05T19:39:32.835Z,-13.96
2023-02-05T19:42:35.967Z,-13.88
2023-02-05T19:45:39.262Z,-13.84
2023-02-05T19:48:42.400Z,-13.80
2023-02-05T19:52:00.126Z,-13.82
2023-02-05T19:55:03.224Z,-13.77
2023-02-05T19:58:06.404Z,-13.66
2023-02-05T20:01:14.109Z,-13.66
2023-02-05T20:04:29.484Z,-13.62
2023-02-05T20:07:34.499Z,-13.65
2023-02-05T20:10:37.719Z,-13.71
2023-02-05T20:13:42.995Z,-13.75
2023-02-05T20:16:47.563Z,-13.79
2023-02-05T20:19:52.145Z,-13.82
2023-02-05T20:22:58.304Z,-13.87
2023-02-05T20:26:04.776Z,-13.84
2023-02-05T20:29:26.625Z,-13.84
2023-02-05T20:32:30.327Z,-13.86
2023-02-05T20:35:36.468Z,-13.87
2023-02-05T20:38:40.273Z,-13.87
2023-02-05T20:41:43.493Z,-13.86
2023-02-05T20:44:46.623Z,-13.91
2023-02-05T20:47:49.730Z,-13.95
2023-02-05T20:50:52.878Z,-13.90
2023-02-05T20:53:57.840Z,-13.89
2023-02-05T20:57:01.600Z,-13.90
2023-02-05T21:00:05.047Z,-13.88
2023-02-05T21:03:08.142Z,-13.92
2023-02-05T21:06:12.102Z,-13.94
2023-02-05T21:09:16.294Z,-14.01
2023-02-05T21:12:19.429Z,-14.04
2023-02-05T21:15:24.209Z,-14.07
2023-02-05T21:18:28.785Z,-14.12
2023-02-05T21:21:34.734Z,-14.13
2023-02-05T21:24:37.913Z,-14.13
2023-02-05T21:27:41.944Z,-14.18
2023-02-05T21:30:45.211Z,-14.20
2023-02-05T21:33:48.465Z,-14.20
2023-02-05T21:36:52.087Z,-14.23
2023-02-05T21:40:04.117Z,-14.26
2023-02-05T21:43:11.963Z,-14.32
2023-02-05T21:46:15.232Z,-14.32
2023-02-05T21:49:18.381Z,-14.31
2023-02-05T21:52:21.484Z,-14.31
2023-02-05T21:55:27.405Z,-14.30
2023-02-05T21:58:38.387Z,-14.28
2023-02-05T22:01:42.914Z,-14.28
2023-02-05T22:04:46.205Z,-14.29
2023-02-05T22:07:49.286Z,-14.32
2023-02-05T22:10:52.595Z,-14.36
2023-02-05T22:13:57.232Z,-14.38
2023-02-05T22:17:01.274Z,-14.40
2023-02-05T22:20:04.490Z,-14.38
2023-02-05T22:23:07.633Z,-14.40
2023-02-05T22:26:11.981Z,-14.45
2023-02-05T22:29:18.222Z,-14.47
2023-02-05T22:32:21.539Z,-14.52
2023-02-05T22:35:24.680Z,-14.50
2023-02-05T22:38:28.807Z,-14.46
2023-02-05T22:41:33.907Z,-14.43
2023-02-05T22:44:37.254Z,-14.44
2023-02-05T22:47:40.427Z,-14.46
2023-02-05T22:50:44.985Z,-14.43
2023-02-05T22:53:49.608Z,-14.37
2023-02-05T22:56:52.812Z,-14.34
2023-02-05T22:59:57.837Z,-14.39
2023-02-05T23:03:02.257Z,-14.39
2023-02-05T23:06:26.893Z,-14.39
2023-02-05T23:09:31.566Z,-14.37
2023-02-05T23:12:36.119Z,-14.33
2023-02-05T23:15:39.295Z,-14.31
2023-02-05T23:18:43.559Z,-14.33
2023-02-05T23:21:47.817Z,-14.32
2023-02-05T23:24:51.057Z,-14.32
2023-02-05T23:27:54.247Z,-14.30
2023-02-05T23:30:57.490Z,-14.25
2023-02-05T23:34:00.833Z,-14.26
2023-02-05T23:37:04.029Z,-14.25
2023-02-05T23:40:07.748Z,-14.25
2023-02-05T23:43:14.158Z,-14.27
2023-02-05T23:46:18.180Z,-14.28
2023-02-05T23:49:22.594Z,-14.30
2023-02-05T23:52:25.845Z,-14.34
2023-02-05T23:55:29.261Z,-14.36
2023-02-05T23:58:35.002Z,-14.41
